createdAt,value
2018-07-26T00:02:00.446Z,26.08
2018-07-26T00:04:29.348Z,26.09
2018-07-26T00:06:58.182Z,26.08
2018-07-26T00:09:27.095Z,26.03
2018-07-26T00:11:56.012Z,25.93
2018-07-26T00:14:24.904Z,25.98
2018-07-26T00:16:53.776Z,25.94
2018-07-26T00:19:22.664Z,25.91
2018-07-26T00:21:51.798Z,25.89
2018-07-26T00:24:20.634Z,25.90
2018-07-26T00:26:49.575Z,25.79
2018-07-26T00:29:18.478Z,25.75
2018-07-26T00:31:48.788Z,25.72
2018-07-26T00:34:17.699Z,25.68
2018-07-26T00:36:46.685Z,25.66
2018-07-26T00:39:15.505Z,25.64
2018-07-26T00:41:44.384Z,25.58
2018-07-26T00:44:13.265Z,25.58
2018-07-26T00:46:42.138Z,25.83
2018-07-26T00:49:11.004Z,25.62
2018-07-26T00:51:39.870Z,25.59
2018-07-26T00:54:10.230Z,25.58
2018-07-26T00:56:39.122Z,25.58
2018-07-26T00:59:08.039Z,25.56
2018-07-26T01:01:36.917Z,25.56
2018-07-26T01:04:05.934Z,25.48
2018-07-26T01:06:34.784Z,25.47
2018-07-26T01:09:04.308Z,25.38
2018-07-26T01:11:33.210Z,25.36
2018-07-26T01:14:02.089Z,25.36
2018-07-26T01:16:32.327Z,25.34
2018-07-26T01:19:01.190Z,25.33
2018-07-26T01:21:30.077Z,25.34
2018-07-26T01:23:58.982Z,25.30
2018-07-26T01:26:27.990Z,25.20
2018-07-26T01:28:56.930Z,25.04
2018-07-26T01:31:25.696Z,25.02
2018-07-26T01:33:54.775Z,25.00
2018-07-26T01:36:23.743Z,24.99
2018-07-26T01:39:28.295Z,24.90
2018-07-26T01:41:57.183Z,24.93
2018-07-26T01:44:26.348Z,25.09
2018-07-26T01:46:55.236Z,24.93
2018-07-26T01:49:24.156Z,24.92
2018-07-26T01:51:53.075Z,24.94
2018-07-26T01:54:21.992Z,24.86
2018-07-26T01:56:50.925Z,24.80
2018-07-26T01:59:19.810Z,24.75
2018-07-26T02:01:48.807Z,24.99
2018-07-26T02:04:17.697Z,24.80
2018-07-26T02:06:46.496Z,24.75
2018-07-26T02:09:15.481Z,24.76
2018-07-26T02:11:44.282Z,24.75
2018-07-26T02:14:30.798Z,24.68
2018-07-26T02:16:59.691Z,24.83
2018-07-26T02:19:28.565Z,24.64
2018-07-26T02:21:57.658Z,24.79
2018-07-26T02:24:26.650Z,24.87
2018-07-26T02:26:55.431Z,24.72
2018-07-26T02:29:24.344Z,24.74
2018-07-26T02:31:53.319Z,24.70
2018-07-26T02:34:22.151Z,24.88
2018-07-26T02:36:51.101Z,24.71
2018-07-26T02:39:19.908Z,24.64
2018-07-26T02:41:48.854Z,24.58
2018-07-26T02:44:17.847Z,24.56
2018-07-26T02:46:46.708Z,24.56
2018-07-26T02:49:15.550Z,24.76
2018-07-26T02:51:44.540Z,24.82
2018-07-26T02:54:13.437Z,24.61
2018-07-26T02:56:42.393Z,24.54
2018-07-26T02:59:11.258Z,24.65
2018-07-26T03:01:40.304Z,24.39
2018-07-26T03:04:09.271Z,24.36
2018-07-26T03:06:38.157Z,24.32
2018-07-26T03:09:08.354Z,24.23
2018-07-26T03:11:37.287Z,24.14
2018-07-26T03:14:06.465Z,24.12
2018-07-26T03:16:35.352Z,24.12
2018-07-26T03:19:04.286Z,24.09
2018-07-26T03:21:33.169Z,24.02
2018-07-26T03:24:02.088Z,23.97
2018-07-26T03:26:30.958Z,23.94
2018-07-26T03:29:02.689Z,23.90
2018-07-26T03:31:31.542Z,23.84
2018-07-26T03:34:00.491Z,23.80
2018-07-26T03:36:29.381Z,23.77
2018-07-26T03:38:58.317Z,23.72
2018-07-26T03:41:27.238Z,23.71
2018-07-26T03:43:56.100Z,23.93
2018-07-26T03:46:24.992Z,23.72
2018-07-26T03:48:53.873Z,23.73
2018-07-26T03:51:30.292Z,23.65
2018-07-26T03:53:59.121Z,23.65
2018-07-26T03:56:28.080Z,23.62
2018-07-26T03:58:56.923Z,23.60
2018-07-26T04:01:25.843Z,23.58
2018-07-26T04:03:54.999Z,23.56
2018-07-26T04:06:24.206Z,23.57
2018-07-26T04:08:53.286Z,23.56
2018-07-26T04:11:22.157Z,23.81
2018-07-26T04:13:52.274Z,23.67
2018-07-26T04:16:21.213Z,23.62
2018-07-26T04:18:50.097Z,23.61
2018-07-26T04:21:19.001Z,23.62
2018-07-26T04:23:47.962Z,23.82
2018-07-26T04:26:16.845Z,23.67
2018-07-26T04:28:45.735Z,23.58
2018-07-26T04:31:14.706Z,23.57
2018-07-26T04:33:43.565Z,23.58
2018-07-26T04:36:12.547Z,23.63
2018-07-26T04:38:41.587Z,23.55
2018-07-26T04:41:10.470Z,23.51
2018-07-26T04:43:39.390Z,23.66
2018-07-26T04:46:08.254Z,23.48
2018-07-26T04:48:37.367Z,23.49
2018-07-26T04:51:06.616Z,23.51
2018-07-26T04:53:35.649Z,23.48
2018-07-26T04:56:04.613Z,23.51
2018-07-26T04:58:33.502Z,23.57
2018-07-26T05:01:02.419Z,23.58
2018-07-26T05:03:31.277Z,23.54
2018-07-26T05:06:00.187Z,23.61
2018-07-26T05:08:29.108Z,23.60
2018-07-26T05:10:57.988Z,23.59
2018-07-26T05:13:26.931Z,23.62
2018-07-26T05:15:55.796Z,23.65
2018-07-26T05:18:26.279Z,23.72
2018-07-26T05:20:55.062Z,24.01
2018-07-26T05:23:23.942Z,23.94
2018-07-26T05:25:52.767Z,24.03
2018-07-26T05:28:21.727Z,24.11
2018-07-26T05:30:50.575Z,24.17
2018-07-26T05:33:19.570Z,24.24
2018-07-26T05:35:48.499Z,24.33
2018-07-26T05:38:17.380Z,24.39
2018-07-26T05:40:46.316Z,24.43
2018-07-26T05:43:15.295Z,24.48
2018-07-26T05:45:44.052Z,24.47
2018-07-26T05:48:12.923Z,24.55
2018-07-26T05:50:41.798Z,24.64
2018-07-26T05:53:10.729Z,24.71
2018-07-26T05:55:39.531Z,24.79
2018-07-26T05:58:08.515Z,24.88
2018-07-26T06:00:37.399Z,25.30
2018-07-26T06:03:06.358Z,25.39
2018-07-26T06:05:35.235Z,25.61
2018-07-26T06:08:04.098Z,25.77
2018-07-26T06:10:32.983Z,25.94
2018-07-26T06:13:01.857Z,26.17
2018-07-26T06:15:30.698Z,26.22
2018-07-26T06:17:59.618Z,26.40
2018-07-26T06:20:28.593Z,26.72
2018-07-26T06:22:57.414Z,27.72
2018-07-26T06:25:26.411Z,29.40
2018-07-26T06:27:55.440Z,30.92
2018-07-26T06:30:24.297Z,32.15
2018-07-26T06:32:53.223Z,32.84
2018-07-26T06:35:22.082Z,33.62
2018-07-26T06:37:51.022Z,34.32
2018-07-26T06:40:19.852Z,34.66
2018-07-26T06:42:48.765Z,34.80
2018-07-26T06:45:17.662Z,34.22
2018-07-26T06:47:46.743Z,33.40
2018-07-26T06:50:15.644Z,32.72
2018-07-26T06:52:44.533Z,32.31
2018-07-26T06:55:13.391Z,31.92
2018-07-26T06:57:42.255Z,31.72
2018-07-26T07:00:11.319Z,31.64
2018-07-26T07:02:40.631Z,31.44
2018-07-26T07:05:10.135Z,31.50
2018-07-26T07:07:39.373Z,31.63
2018-07-26T07:10:08.295Z,31.96
2018-07-26T07:12:39.392Z,31.97
2018-07-26T07:15:11.111Z,31.84
2018-07-26T07:17:40.290Z,32.06
2018-07-26T07:20:10.238Z,32.26
2018-07-26T07:22:44.237Z,32.41
2018-07-26T07:25:16.076Z,32.43
2018-07-26T07:27:45.816Z,32.55
2018-07-26T07:30:16.929Z,32.69
2018-07-26T07:32:46.483Z,32.83
2018-07-26T07:35:26.637Z,33.09
2018-07-26T07:38:03.138Z,33.26
2018-07-26T07:40:34.257Z,33.34
2018-07-26T07:43:03.447Z,33.40
2018-07-26T07:45:35.053Z,33.34
2018-07-26T07:48:06.354Z,33.68
2018-07-26T07:50:33.918Z,33.66
2018-07-26T07:53:03.431Z,33.90
2018-07-26T07:55:39.729Z,34.13
2018-07-26T07:58:04.267Z,34.43
2018-07-26T08:00:33.149Z,34.51
2018-07-26T08:03:02.109Z,34.58
2018-07-26T08:05:30.954Z,34.36
2018-07-26T08:07:59.801Z,34.84
2018-07-26T08:10:28.688Z,34.85
2018-07-26T08:12:57.554Z,34.87
2018-07-26T08:15:26.462Z,35.24
2018-07-26T08:17:55.329Z,35.45
2018-07-26T08:20:24.233Z,35.77
2018-07-26T08:22:53.134Z,35.95
2018-07-26T08:25:21.995Z,36.23
2018-07-26T08:27:50.852Z,36.09
2018-07-26T08:30:19.851Z,35.97
2018-07-26T08:32:48.719Z,36.09
2018-07-26T08:35:17.602Z,36.26
2018-07-26T08:37:46.483Z,36.56
2018-07-26T08:40:15.413Z,36.79
2018-07-26T08:42:44.289Z,37.07
2018-07-26T08:45:13.146Z,37.33
2018-07-26T08:47:42.063Z,37.52
2018-07-26T08:50:10.941Z,37.62
2018-07-26T08:52:42.778Z,37.65
2018-07-26T08:55:11.711Z,37.76
2018-07-26T08:57:40.546Z,37.65
2018-07-26T09:00:09.845Z,37.84
2018-07-26T09:02:38.693Z,37.83
2018-07-26T09:05:07.744Z,38.00
2018-07-26T09:07:36.583Z,38.27
2018-07-26T09:10:05.477Z,38.48
2018-07-26T09:12:34.365Z,38.68
2018-07-26T09:15:03.432Z,38.67
2018-07-26T09:17:32.308Z,38.55
2018-07-26T09:20:01.153Z,39.06
2018-07-26T09:22:29.997Z,39.06
2018-07-26T09:24:58.841Z,38.70
2018-07-26T09:27:27.718Z,39.07
2018-07-26T09:29:56.653Z,39.24
2018-07-26T09:32:25.488Z,39.51
2018-07-26T09:34:54.418Z,40.02
2018-07-26T09:37:23.380Z,40.40
2018-07-26T09:39:52.247Z,41.08
2018-07-26T09:42:21.141Z,41.60
2018-07-26T09:44:50.071Z,42.81
2018-07-26T09:47:18.859Z,43.30
2018-07-26T09:49:47.734Z,43.92
2018-07-26T09:52:16.601Z,44.43
2018-07-26T09:54:45.496Z,44.76
2018-07-26T09:57:14.495Z,45.02
2018-07-26T09:59:43.300Z,45.28
2018-07-26T10:02:12.159Z,45.34
2018-07-26T10:04:41.033Z,45.88
2018-07-26T10:07:09.960Z,45.81
2018-07-26T10:09:38.751Z,45.83
2018-07-26T10:12:07.603Z,46.06
2018-07-26T10:14:36.449Z,46.45
2018-07-26T10:17:05.421Z,46.49
2018-07-26T10:19:34.295Z,46.32
2018-07-26T10:22:09.436Z,46.10
2018-07-26T10:24:38.358Z,45.62
2018-07-26T10:27:07.227Z,45.50
2018-07-26T10:29:36.088Z,45.82
2018-07-26T10:32:05.024Z,46.27
2018-07-26T10:34:33.969Z,47.71
2018-07-26T10:37:02.842Z,48.07
2018-07-26T10:39:31.677Z,48.28
2018-07-26T10:42:00.578Z,47.17
2018-07-26T10:44:29.499Z,47.24
2018-07-26T10:46:58.377Z,46.89
2018-07-26T10:49:27.285Z,46.99
2018-07-26T10:51:56.178Z,46.78
2018-07-26T10:54:25.066Z,47.10
2018-07-26T10:56:53.979Z,47.33
2018-07-26T10:59:22.843Z,46.94
2018-07-26T11:01:51.809Z,46.89
2018-07-26T11:04:20.592Z,45.84
2018-07-26T11:06:49.531Z,46.35
2018-07-26T11:09:18.383Z,46.25
2018-07-26T11:11:47.312Z,46.27
2018-07-26T11:14:16.204Z,45.92
2018-07-26T11:16:45.075Z,45.78
2018-07-26T11:19:14.050Z,46.17
2018-07-26T11:21:42.883Z,45.64
2018-07-26T11:24:11.770Z,45.86
2018-07-26T11:26:40.732Z,45.91
2018-07-26T11:29:09.616Z,46.16
2018-07-26T11:31:38.485Z,45.89
2018-07-26T11:34:07.388Z,45.63
2018-07-26T11:36:36.251Z,45.94
2018-07-26T11:39:07.988Z,46.33
2018-07-26T11:41:37.076Z,46.05
2018-07-26T11:44:06.286Z,46.02
2018-07-26T11:46:35.239Z,46.18
2018-07-26T11:49:04.138Z,45.97
2018-07-26T11:51:33.125Z,45.79
2018-07-26T11:54:01.918Z,45.32
2018-07-26T11:56:30.771Z,45.29
2018-07-26T11:58:59.668Z,45.26
2018-07-26T12:01:28.468Z,45.77
2018-07-26T12:03:57.433Z,44.98
2018-07-26T12:06:26.225Z,44.31
2018-07-26T12:08:55.105Z,44.02
2018-07-26T12:11:24.322Z,43.40
2018-07-26T12:13:53.217Z,43.51
2018-07-26T12:16:22.086Z,43.00
2018-07-26T12:18:50.945Z,42.87
2018-07-26T12:21:19.821Z,42.14
2018-07-26T12:23:48.775Z,42.06
2018-07-26T12:26:17.653Z,42.16
2018-07-26T12:28:46.569Z,42.09
2018-07-26T12:31:15.468Z,41.65
2018-07-26T12:33:44.322Z,41.31
2018-07-26T12:36:13.989Z,41.25
2018-07-26T12:38:42.842Z,41.35
2018-07-26T12:41:11.736Z,41.43
2018-07-26T12:43:40.689Z,41.54
2018-07-26T12:46:09.497Z,41.48
2018-07-26T12:48:38.653Z,41.25
2018-07-26T12:51:07.495Z,41.10
2018-07-26T12:53:36.571Z,40.62
2018-07-26T12:56:05.486Z,40.67
2018-07-26T12:58:34.371Z,40.76
2018-07-26T13:01:03.251Z,40.80
2018-07-26T13:03:32.135Z,40.43
2018-07-26T13:06:00.980Z,40.46
2018-07-26T13:08:29.861Z,40.40
2018-07-26T13:10:58.718Z,40.41
2018-07-26T13:13:27.629Z,40.24
2018-07-26T13:16:00.045Z,40.44
2018-07-26T13:18:28.905Z,40.42
2018-07-26T13:20:57.833Z,40.34
2018-07-26T13:23:26.771Z,40.30
2018-07-26T13:25:55.679Z,40.18
2018-07-26T13:28:24.540Z,40.14
2018-07-26T13:30:53.385Z,40.26
2018-07-26T13:33:22.290Z,40.28
2018-07-26T13:35:51.133Z,40.39
2018-07-26T13:43:03.262Z,39.70
2018-07-26T13:45:32.077Z,39.82
2018-07-26T13:48:00.983Z,39.84
2018-07-26T13:50:29.954Z,39.74
2018-07-26T13:52:58.921Z,39.80
2018-07-26T13:55:27.759Z,39.67
2018-07-26T13:57:56.756Z,39.84
2018-07-26T14:00:25.543Z,39.89
2018-07-26T14:02:54.453Z,40.00
2018-07-26T14:05:26.214Z,40.03
2018-07-26T14:07:55.068Z,39.71
2018-07-26T14:10:23.987Z,39.81
2018-07-26T14:12:52.844Z,39.95
2018-07-26T14:15:21.858Z,39.99
2018-07-26T14:17:50.657Z,39.82
2018-07-26T14:20:19.535Z,39.96
2018-07-26T14:22:48.434Z,40.11
2018-07-26T14:25:17.278Z,39.97
2018-07-26T14:27:53.673Z,40.09
2018-07-26T14:30:22.565Z,39.99
2018-07-26T14:32:51.588Z,39.87
2018-07-26T14:35:20.463Z,39.90
2018-07-26T14:37:49.405Z,39.93
2018-07-26T14:40:18.324Z,39.88
2018-07-26T14:42:47.213Z,39.95
2018-07-26T14:45:16.065Z,39.78
2018-07-26T14:47:44.957Z,39.76
2018-07-26T14:50:17.214Z,39.75
2018-07-26T14:52:46.145Z,39.74
2018-07-26T14:55:15.061Z,39.97
2018-07-26T14:57:43.955Z,40.03
2018-07-26T15:00:12.918Z,39.74
2018-07-26T15:02:41.737Z,39.75
2018-07-26T15:05:10.605Z,39.81
2018-07-26T15:07:39.476Z,39.94
2018-07-26T15:10:08.712Z,40.12
2018-07-26T15:12:37.733Z,40.20
2018-07-26T15:15:07.365Z,40.05
2018-07-26T15:17:36.256Z,40.06
2018-07-26T15:20:05.778Z,40.42
2018-07-26T15:22:34.652Z,40.45
2018-07-26T15:25:03.534Z,40.26
2018-07-26T15:27:32.406Z,40.32
2018-07-26T15:30:01.280Z,40.30
2018-07-26T15:32:30.274Z,40.25
2018-07-26T15:34:59.069Z,40.03
2018-07-26T15:37:27.947Z,39.94
2018-07-26T15:39:56.971Z,39.87
2018-07-26T15:42:25.826Z,39.52
2018-07-26T15:44:54.731Z,39.32
2018-07-26T15:47:23.606Z,39.05
2018-07-26T15:49:52.468Z,38.85
2018-07-26T15:52:21.409Z,38.53
2018-07-26T15:54:53.068Z,38.52
2018-07-26T15:57:22.003Z,38.55
2018-07-26T15:59:50.787Z,37.90
2018-07-26T16:02:19.661Z,38.02
2018-07-26T16:04:48.509Z,38.11
2018-07-26T16:07:17.415Z,38.14
2018-07-26T16:09:46.294Z,38.09
2018-07-26T16:12:15.416Z,38.17
2018-07-26T16:14:44.177Z,38.27
2018-07-26T16:17:13.186Z,38.19
2018-07-26T16:19:42.205Z,38.15
2018-07-26T16:22:11.119Z,38.13
2018-07-26T16:24:39.888Z,37.87
2018-07-26T16:27:08.795Z,37.93
2018-07-26T16:29:37.656Z,37.93
2018-07-26T16:32:06.493Z,38.03
2018-07-26T16:34:35.360Z,38.12
2018-07-26T16:37:04.186Z,38.05
2018-07-26T16:39:33.056Z,38.07
2018-07-26T16:42:01.956Z,38.05
2018-07-26T16:44:30.784Z,38.17
2018-07-26T16:46:59.665Z,38.07
2018-07-26T16:49:28.511Z,38.01
2018-07-26T16:51:57.353Z,37.96
2018-07-26T16:54:26.239Z,37.92
2018-07-26T16:56:55.099Z,37.82
2018-07-26T16:59:23.989Z,37.87
2018-07-26T17:01:59.821Z,37.77
2018-07-26T17:04:28.684Z,37.78
2018-07-26T17:06:57.575Z,37.70
2018-07-26T17:09:26.519Z,37.72
2018-07-26T17:11:55.342Z,37.61
2018-07-26T17:14:24.204Z,37.47
2018-07-26T17:16:53.074Z,37.28
2018-07-26T17:19:21.904Z,37.37
2018-07-26T17:21:50.762Z,37.54
2018-07-26T17:24:22.642Z,37.41
2018-07-26T17:26:51.521Z,37.33
2018-07-26T17:29:20.425Z,37.28
2018-07-26T17:31:49.307Z,37.33
2018-07-26T17:34:18.107Z,37.38
2018-07-26T17:36:47.020Z,37.30
2018-07-26T17:39:15.893Z,37.19
2018-07-26T17:41:44.801Z,37.11
2018-07-26T17:44:13.739Z,37.08
2018-07-26T17:47:00.414Z,37.06
2018-07-26T17:49:29.291Z,37.01
2018-07-26T17:51:58.180Z,36.96
2018-07-26T17:54:27.027Z,36.88
2018-07-26T17:56:55.980Z,36.74
2018-07-26T17:59:24.790Z,36.74
2018-07-26T18:01:53.669Z,36.47
2018-07-26T18:04:22.516Z,36.38
2018-07-26T18:06:51.383Z,36.30
2018-07-26T18:09:20.296Z,36.11
2018-07-26T18:11:49.261Z,36.04
2018-07-26T18:14:18.134Z,35.96
2018-07-26T18:16:47.032Z,35.90
2018-07-26T18:19:15.907Z,35.82
2018-07-26T18:21:44.830Z,35.76
2018-07-26T18:24:13.696Z,35.70
2018-07-26T18:26:42.578Z,35.65
2018-07-26T18:29:11.509Z,35.56
2018-07-26T18:31:41.902Z,35.53
2018-07-26T18:34:10.590Z,35.70
2018-07-26T18:36:39.450Z,35.51
2018-07-26T18:39:10.344Z,35.46
2018-07-26T18:41:39.242Z,35.16
2018-07-26T18:44:09.119Z,34.96
2018-07-26T18:46:38.637Z,34.98
2018-07-26T18:49:08.609Z,34.75
2018-07-26T18:51:37.430Z,34.59
2018-07-26T18:54:06.325Z,34.11
2018-07-26T18:56:35.305Z,34.11
2018-07-26T18:59:04.220Z,34.06
2018-07-26T19:01:33.098Z,34.05
2018-07-26T19:04:01.972Z,34.00
2018-07-26T19:06:30.880Z,33.94
2018-07-26T19:08:59.763Z,33.89
2018-07-26T19:11:28.658Z,33.82
2018-07-26T19:14:33.478Z,33.81
2018-07-26T19:17:02.266Z,33.64
2018-07-26T19:19:31.235Z,33.77
2018-07-26T19:22:00.123Z,33.55
2018-07-26T19:24:29.162Z,33.45
2018-07-26T19:26:58.086Z,33.37
2018-07-26T19:29:26.979Z,33.31
2018-07-26T19:31:55.825Z,33.29
2018-07-26T19:34:25.079Z,33.29
2018-07-26T19:37:01.333Z,33.22
2018-07-26T19:39:30.250Z,33.19
2018-07-26T19:41:59.158Z,33.18
2018-07-26T19:44:28.017Z,33.16
2018-07-26T19:46:56.927Z,33.12
2018-07-26T19:49:25.854Z,33.07
2018-07-26T19:51:54.670Z,33.07
2018-07-26T19:54:23.572Z,32.98
2018-07-26T19:56:52.623Z,32.88
2018-07-26T19:59:21.609Z,32.83
2018-07-26T20:01:50.597Z,32.80
2018-07-26T20:04:19.687Z,32.78
2018-07-26T20:06:48.564Z,32.75
2018-07-26T20:09:17.674Z,32.63
2018-07-26T20:11:46.572Z,32.59
2018-07-26T20:14:15.433Z,32.51
2018-07-26T20:19:37.463Z,32.44
2018-07-26T20:22:06.359Z,32.39
2018-07-26T20:24:35.331Z,32.34
2018-07-26T20:27:04.321Z,32.29
2018-07-26T20:29:33.192Z,32.49
2018-07-26T20:32:02.269Z,32.54
2018-07-26T20:34:31.146Z,32.27
2018-07-26T20:37:02.843Z,32.13
2018-07-26T20:39:31.823Z,32.09
2018-07-26T20:42:00.742Z,32.03
2018-07-26T20:44:29.730Z,32.01
2018-07-26T20:46:58.749Z,31.98
2018-07-26T20:49:27.610Z,31.89
2018-07-26T20:51:56.623Z,31.87
2018-07-26T20:54:25.610Z,31.83
2018-07-26T20:56:54.526Z,32.08
2018-07-26T20:59:23.464Z,31.89
2018-07-26T21:01:52.394Z,31.83
2018-07-26T21:04:21.264Z,31.80
2018-07-26T21:06:50.294Z,31.78
2018-07-26T21:09:19.224Z,31.75
2018-07-26T21:11:48.179Z,31.98
2018-07-26T21:14:17.157Z,31.78
2018-07-26T21:16:46.074Z,31.77
2018-07-26T21:19:15.000Z,31.75
2018-07-26T21:21:43.886Z,31.70
2018-07-26T21:24:12.939Z,31.65
2018-07-26T21:26:42.048Z,31.61
2018-07-26T21:29:10.944Z,31.59
2018-07-26T21:31:39.776Z,31.61
2018-07-26T21:34:08.758Z,31.67
2018-07-26T21:36:37.672Z,31.71
2018-07-26T21:39:08.496Z,31.74
2018-07-26T21:41:37.350Z,31.79
2018-07-26T21:44:07.963Z,32.06
2018-07-26T21:46:35.317Z,31.97
2018-07-26T21:49:04.206Z,31.98
2018-07-26T21:51:33.146Z,31.97
2018-07-26T21:54:02.062Z,31.98
2018-07-26T21:56:30.940Z,31.97
2018-07-26T21:58:59.900Z,31.96
2018-07-26T22:01:28.761Z,31.96
2018-07-26T22:03:57.677Z,31.94
2018-07-26T22:06:26.540Z,31.81
2018-07-26T22:08:55.577Z,31.88
2018-07-26T22:11:24.468Z,31.82
2018-07-26T22:13:53.414Z,31.73
2018-07-26T22:16:22.294Z,31.73
2018-07-26T22:18:51.194Z,31.72
2018-07-26T22:21:20.068Z,31.71
2018-07-26T22:23:48.902Z,31.70
2018-07-26T22:26:17.838Z,31.67
2018-07-26T22:28:46.679Z,31.66
2018-07-26T22:31:18.598Z,31.65
2018-07-26T22:33:47.466Z,31.62
2018-07-26T22:36:16.353Z,31.57
2018-07-26T22:38:45.213Z,31.56
2018-07-26T22:41:14.142Z,31.53
2018-07-26T22:43:43.015Z,31.48
2018-07-26T22:46:11.848Z,31.42
2018-07-26T22:48:40.759Z,31.37
2018-07-26T22:51:09.663Z,31.32
2018-07-26T22:53:38.699Z,31.44
2018-07-26T22:56:07.536Z,31.35
2018-07-26T22:58:36.435Z,31.26
2018-07-26T23:01:05.358Z,31.20
2018-07-26T23:03:34.185Z,31.20
2018-07-26T23:06:03.069Z,31.16
2018-07-26T23:08:31.983Z,31.17
2018-07-26T23:11:00.846Z,31.10
2018-07-26T23:13:29.762Z,31.04
2018-07-26T23:15:58.667Z,31.01
2018-07-26T23:18:27.577Z,31.02
2018-07-26T23:20:56.472Z,31.02
2018-07-26T23:23:25.536Z,31.15
2018-07-26T23:25:54.354Z,30.96
2018-07-26T23:28:23.212Z,30.95
2018-07-26T23:30:52.114Z,30.87
2018-07-26T23:33:21.024Z,30.85
2018-07-26T23:35:49.877Z,30.79
2018-07-26T23:38:18.844Z,30.76
2018-07-26T23:40:47.770Z,30.72
2018-07-26T23:43:16.668Z,30.68
2018-07-26T23:45:45.578Z,30.67
2018-07-26T23:48:15.392Z,30.53
2018-07-26T23:50:44.276Z,30.51
2018-07-26T23:53:13.259Z,30.46
2018-07-26T23:55:42.096Z,30.47
2018-07-26T23:58:10.959Z,30.43
